Time;durP1;ratioP1;P1;durP2;ratioP2;P2;SDS_P1;SDS_P2;PMS_P1;PMS_P2;Temp;Humidity;BMP_temperature;BMP_pressure;BME280_temperature;BME280_humidity;BME280_pressure;Samples;Min_cycle;Max_cycle;Signal;HPM_P1;HPM_P2
2023/08/06 00:01:26;;;;;;;8.13;1.70;;;;;;;13.10;91.93;101091.56;5032590;28;20594;-43
2023/08/06 00:03:53;;;;;;;5.15;2.08;;;;;;;13.05;92.03;101094.56;5033496;28;20045;-44
2023/08/06 00:06:20;;;;;;;8.40;2.20;;;;;;;13.02;92.09;101109.16;5033503;28;20049;-42
2023/08/06 00:08:47;;;;;;;4.70;2.38;;;;;;;12.97;92.05;101095.50;5033659;28;20084;-43
2023/08/06 00:11:14;;;;;;;9.40;2.15;;;;;;;13.00;92.25;101095.59;5032037;28;20389;-43
2023/08/06 00:13:49;;;;;;;7.15;2.10;;;;;;;12.97;92.35;101092.72;5032588;28;20049;-43
2023/08/06 00:16:16;;;;;;;4.68;2.25;;;;;;;12.89;92.41;101096.47;5033150;28;20053;-44
2023/08/06 00:18:43;;;;;;;6.45;2.05;;;;;;;12.89;92.56;101096.47;5033132;28;20076;-43
2023/08/06 00:21:12;;;;;;;5.63;2.00;;;;;;;12.86;92.69;101091.59;5032639;28;20037;-43
2023/08/06 00:23:39;;;;;;;6.00;2.17;;;;;;;12.85;92.75;101101.91;5033169;28;20468;-45
2023/08/06 00:26:07;;;;;;;5.28;2.45;;;;;;;12.81;92.84;101090.66;5031942;28;20060;-43
2023/08/06 00:28:35;;;;;;;9.30;1.90;;;;;;;12.79;93.11;101097.75;5033104;28;20050;-43
2023/08/06 00:31:02;;;;;;;4.07;1.80;;;;;;;12.78;92.99;101099.75;5032240;28;20045;-43
2023/08/06 00:33:29;;;;;;;6.15;3.15;;;;;;;12.75;93.05;101097.66;5033131;28;20061;-43
2023/08/06 00:35:56;;;;;;;5.10;1.90;;;;;;;12.72;93.20;101114.22;5033054;28;20138;-43
2023/08/06 00:38:23;;;;;;;9.25;2.75;;;;;;;12.66;92.92;101104.50;5032898;28;20048;-43
2023/08/06 00:40:50;;;;;;;4.68;2.53;;;;;;;12.62;93.27;101109.97;5032106;28;20045;-43
2023/08/06 00:43:17;;;;;;;7.70;2.72;;;;;;;12.63;93.45;101100.44;5032856;28;20091;-43
2023/08/06 00:45:44;;;;;;;6.72;2.65;;;;;;;12.65;93.32;101103.69;5032908;28;20061;-43
2023/08/06 00:48:11;;;;;;;4.18;2.85;;;;;;;12.62;93.35;101104.41;5032454;28;20107;-43
2023/08/06 00:50:38;;;;;;;6.47;2.35;;;;;;;12.60;93.61;101112.25;5023122;28;20053;-43
2023/08/06 00:53:05;;;;;;;5.70;2.47;;;;;;;12.58;93.68;101114.56;5032802;28;20431;-44
2023/08/06 00:55:32;;;;;;;6.00;2.20;;;;;;;12.60;93.70;101106.69;5032970;28;20042;-45
2023/08/06 00:58:01;;;;;;;7.47;3.38;;;;;;;12.59;93.62;101107.88;5032610;28;20056;-45
2023/08/06 01:00:28;;;;;;;9.70;3.42;;;;;;;12.52;93.85;101104.06;5031681;28;20049;-43
2023/08/06 01:02:55;;;;;;;4.85;2.40;;;;;;;12.53;93.98;101103.72;5032599;28;20037;-43
2023/08/06 01:05:23;;;;;;;7.47;2.90;;;;;;;12.45;93.90;101104.66;5032502;28;20065;-43
2023/08/06 01:07:55;;;;;;;5.32;2.40;;;;;;;12.45;94.10;101101.88;5032302;28;20446;-43
2023/08/06 01:10:25;;;;;;;4.78;2.70;;;;;;;12.44;93.87;101100.25;5030294;28;20053;-46
2023/08/06 01:12:59;;;;;;;4.70;2.25;;;;;;;12.41;93.95;101109.28;5030974;28;20076;-42
2023/08/06 01:15:46;;;;;;;6.15;3.08;;;;;;;12.39;94.03;101105.25;5032450;28;20534;-43
2023/08/06 01:18:13;;;;;;;3.58;2.00;;;;;;;12.38;93.90;101118.31;5032543;28;20411;-44
2023/08/06 01:20:40;;;;;;;4.38;2.17;;;;;;;12.38;94.11;101107.22;5031459;28;20033;-42
2023/08/06 01:23:07;;;;;;;5.53;1.70;;;;;;;12.32;93.77;101111.38;5032037;28;20055;-44
2023/08/06 01:25:42;;;;;;;5.70;1.98;;;;;;;12.29;93.96;101109.28;5031577;28;20104;-43
2023/08/06 01:28:23;;;;;;;3.95;2.85;;;;;;;12.27;94.30;101106.06;5032538;28;20049;-44
2023/08/06 01:30:52;;;;;;;2.95;1.75;;;;;;;12.23;94.26;101107.91;5031499;28;20103;-43
2023/08/06 01:33:22;;;;;;;3.58;1.45;;;;;;;12.16;94.45;101110.44;5032130;28;20550;-42
2023/08/06 01:35:51;;;;;;;11.18;2.42;;;;;;;12.14;94.44;101118.31;5032007;28;20407;-43
2023/08/06 01:38:18;;;;;;;4.50;1.80;;;;;;;12.11;94.29;101116.22;5031804;28;20045;-43
2023/08/06 01:40:44;;;;;;;5.55;2.88;;;;;;;12.08;94.50;101117.72;5031210;28;20123;-43
2023/08/06 01:43:11;;;;;;;6.70;2.13;;;;;;;12.05;94.56;101118.41;5031614;28;20069;-43
2023/08/06 01:45:38;;;;;;;3.50;2.17;;;;;;;12.02;94.63;101123.88;5031712;28;20037;-43
2023/08/06 01:48:05;;;;;;;3.97;2.17;;;;;;;11.99;94.82;101128.13;5031597;28;20037;-44
2023/08/06 01:50:32;;;;;;;6.28;2.65;;;;;;;11.95;94.76;101134.72;5030647;28;20050;-43
2023/08/06 01:52:59;;;;;;;2.38;1.60;;;;;;;11.95;94.99;101131.94;5031255;28;20085;-44
2023/08/06 01:55:25;;;;;;;5.55;1.73;;;;;;;11.90;95.16;101132.97;5031619;28;20576;-43
2023/08/06 01:57:52;;;;;;;7.68;2.15;;;;;;;11.84;95.28;101139.09;5031250;28;20132;-42
2023/08/06 02:00:19;;;;;;;3.05;2.15;;;;;;;11.81;95.49;101134.25;5031834;28;20092;-42
2023/08/06 02:02:48;;;;;;;5.95;2.30;;;;;;;11.78;95.85;101126.59;5029250;28;20053;-44
2023/08/06 02:05:14;;;;;;;3.92;1.80;;;;;;;11.75;96.22;101125.34;5030787;28;20184;-43
2023/08/06 02:07:41;;;;;;;4.25;1.90;;;;;;;11.75;96.19;101130.06;5031367;28;20503;-43
2023/08/06 02:10:08;;;;;;;6.57;1.95;;;;;;;11.72;96.17;101131.56;5031678;28;20111;-43
2023/08/06 02:12:35;;;;;;;3.38;2.42;;;;;;;11.69;96.46;101136.97;5030391;28;20180;-43
2023/08/06 02:15:02;;;;;;;4.57;1.95;;;;;;;11.68;96.73;101135.31;5031094;28;20048;-44
2023/08/06 02:17:29;;;;;;;7.10;2.05;;;;;;;11.69;96.73;101136.97;5031357;28;20041;-43
2023/08/06 02:19:56;;;;;;;6.13;2.05;;;;;;;11.69;96.88;101140.56;5044680;28;20045;-47
2023/08/06 02:22:23;;;;;;;4.47;1.95;;;;;;;11.68;96.89;101146.41;5024465;28;20053;-43
2023/08/06 02:24:49;;;;;;;6.85;2.15;;;;;;;11.69;96.86;101143.34;5030741;28;20108;-44
2023/08/06 02:27:16;;;;;;;7.22;2.17;;;;;;;11.70;96.80;101144.16;5031214;28;20144;-43
2023/08/06 02:29:44;;;;;;;7.25;2.38;;;;;;;11.68;97.02;101143.63;5031352;28;20048;-42
2023/08/06 02:32:11;;;;;;;4.82;2.38;;;;;;;11.66;97.14;101137.63;5030303;28;20384;-44
2023/08/06 02:34:38;;;;;;;5.63;2.60;;;;;;;11.62;97.23;101137.53;5031064;28;20073;-43
2023/08/06 02:37:05;;;;;;;7.53;3.22;;;;;;;11.64;97.45;101137.97;5030282;28;20495;-44
2023/08/06 02:39:31;;;;;;;4.95;2.85;;;;;;;11.68;97.53;101141.69;5029794;28;20057;-43
2023/08/06 02:41:58;;;;;;;10.23;5.10;;;;;;;11.68;97.49;101130.59;5023302;28;20118;-42
2023/08/06 02:44:28;;;;;;;6.55;3.08;;;;;;;11.67;97.37;101139.25;5030631;28;20041;-44
2023/08/06 02:46:55;;;;;;;10.38;4.18;;;;;;;11.62;97.58;101134.75;5030905;28;20765;-43
2023/08/06 02:49:21;;;;;;;6.82;3.58;;;;;;;11.58;97.54;101137.38;5030684;28;20049;-44
2023/08/06 02:51:48;;;;;;;6.60;2.70;;;;;;;11.55;97.72;101132.53;5030106;28;20037;-43
2023/08/06 02:54:15;;;;;;;5.22;2.15;;;;;;;11.49;97.96;101128.34;5028629;28;20164;-43
2023/08/06 02:56:46;;;;;;;5.60;2.28;;;;;;;11.46;98.40;101123.47;5031207;28;20053;-43
2023/08/06 02:59:13;;;;;;;7.25;2.58;;;;;;;11.45;98.18;101121.88;5030640;28;20549;-43
2023/08/06 03:01:40;;;;;;;5.82;2.50;;;;;;;11.42;98.16;101116.19;5029975;28;20049;-43
2023/08/06 03:04:07;;;;;;;4.82;2.70;;;;;;;11.41;98.34;101114.59;5030535;28;20049;-44
2023/08/06 03:06:33;;;;;;;4.47;2.30;;;;;;;11.39;98.58;101128.78;5030319;28;20050;-44
2023/08/06 03:09:02;;;;;;;6.57;2.85;;;;;;;11.41;98.55;101125.66;5030846;28;20049;-43
2023/08/06 03:11:29;;;;;;;7.82;4.20;;;;;;;11.44;98.69;101122.19;5029444;28;20124;-43
2023/08/06 03:13:56;;;;;;;5.25;2.70;;;;;;;11.39;98.65;101128.78;5030697;28;20049;-44
2023/08/06 03:16:24;;;;;;;11.65;2.35;;;;;;;11.41;98.53;101128.44;5030802;28;20049;-44
2023/08/06 03:18:51;;;;;;;3.85;2.15;;;;;;;11.39;99.00;101128.78;5030682;28;20052;-43
2023/08/06 03:21:17;;;;;;;5.03;2.50;;;;;;;11.35;98.71;101127.84;5029617;28;20446;-43
2023/08/06 03:23:48;;;;;;;5.18;2.58;;;;;;;11.34;99.01;101120.66;5029222;28;20053;-43
2023/08/06 03:26:14;;;;;;;4.68;2.20;;;;;;;11.34;98.96;101128.16;5030427;28;20096;-44
2023/08/06 03:28:41;;;;;;;5.03;3.20;;;;;;;11.32;99.10;101131.28;5030889;28;20099;-43
2023/08/06 03:31:08;;;;;;;7.65;2.42;;;;;;;11.30;99.27;101122.50;5030542;28;20038;-45
2023/08/06 03:33:35;;;;;;;7.65;3.78;;;;;;;11.29;99.31;101129.19;5029707;28;20065;-42
2023/08/06 03:36:02;;;;;;;12.95;3.28;;;;;;;11.25;99.55;101117.16;5030787;28;20042;-42
2023/08/06 03:38:29;;;;;;;5.63;2.55;;;;;;;11.23;99.58;101119.47;5030306;28;20085;-43
2023/08/06 03:40:56;;;;;;;5.40;2.50;;;;;;;11.21;99.73;101127.31;5030761;28;20435;-43
2023/08/06 03:43:22;;;;;;;7.85;3.60;;;;;;;11.22;100.00;101128.94;5029166;28;20065;-45
2023/08/06 03:45:49;;;;;;;6.00;2.55;;;;;;;11.23;99.92;101133.31;5029645;28;20048;-43
2023/08/06 03:48:16;;;;;;;5.00;2.50;;;;;;;11.20;100.00;101128.47;5030764;28;20167;-43
2023/08/06 03:50:43;;;;;;;6.00;2.55;;;;;;;11.22;100.00;101126.19;5033912;28;20049;-44
2023/08/06 03:53:09;;;;;;;5.53;2.33;;;;;;;11.21;100.00;101127.31;5032863;28;20140;-43
2023/08/06 03:55:36;;;;;;;8.13;3.30;;;;;;;11.19;100.00;101137.94;5033707;28;20056;-43
2023/08/06 03:58:03;;;;;;;5.22;2.97;;;;;;;11.19;100.00;101126.84;5033638;28;20091;-42
2023/08/06 04:00:30;;;;;;;5.05;2.15;;;;;;;11.20;100.00;101130.44;5033768;28;20395;-43
2023/08/06 04:02:56;;;;;;;5.07;2.60;;;;;;;11.21;100.00;101127.31;5032816;28;20057;-43
2023/08/06 04:05:23;;;;;;;4.80;2.15;;;;;;;11.22;100.00;101134.50;5033871;28;20562;-44
2023/08/06 04:07:50;;;;;;;4.78;2.63;;;;;;;11.24;100.00;101132.19;5033351;28;20124;-43
2023/08/06 04:10:17;;;;;;;8.02;2.33;;;;;;;11.22;100.00;101128.94;5033644;28;20069;-42
2023/08/06 04:12:43;;;;;;;4.43;2.85;;;;;;;11.22;100.00;101117.88;5027303;28;20041;-42
2023/08/06 04:15:10;;;;;;;6.82;2.80;;;;;;;11.17;100.00;101120.84;5033840;28;20057;-43
2023/08/06 04:17:37;;;;;;;4.15;2.53;;;;;;;11.14;100.00;101124.28;5033204;28;20045;-43
2023/08/06 04:20:04;;;;;;;6.88;2.00;;;;;;;11.10;100.00;101137.19;5033403;28;20053;-45
2023/08/06 04:22:31;;;;;;;5.43;2.13;;;;;;;11.07;100.00;101123.22;5031845;28;20072;-42
2023/08/06 04:24:58;;;;;;;3.85;2.38;;;;;;;11.03;100.00;101120.31;5033138;28;20061;-44
2023/08/06 04:27:25;;;;;;;6.07;2.25;;;;;;;11.01;100.00;101122.63;5033237;28;20053;-43
2023/08/06 04:29:51;;;;;;;7.13;2.50;;;;;;;10.97;100.00;101136.31;5031935;28;20873;-43
2023/08/06 04:32:19;;;;;;;6.63;2.80;;;;;;;10.95;100.00;101132.28;5033330;28;20046;-43
2023/08/06 04:34:47;;;;;;;5.65;3.33;;;;;;;10.91;100.00;101142.41;5033147;28;20068;-43
2023/08/06 04:37:14;;;;;;;4.30;2.33;;;;;;;10.85;100.00;101135.47;5033115;28;20041;-42
2023/08/06 04:39:41;;;;;;;7.05;2.67;;;;;;;10.80;100.00;101135.66;5031663;28;20496;-43
2023/08/06 04:42:08;;;;;;;8.93;3.15;;;;;;;10.77;100.00;101145.47;5032420;28;20115;-42
2023/08/06 04:44:34;;;;;;;4.93;2.70;;;;;;;10.74;100.00;101151.66;5031358;28;20076;-43
2023/08/06 04:47:01;;;;;;;4.07;2.80;;;;;;;10.71;100.00;101140.44;5032771;28;20392;-43
2023/08/06 04:49:28;;;;;;;7.20;2.70;;;;;;;10.72;100.00;101147.59;5032919;28;20129;-42
2023/08/06 04:51:55;;;;;;;5.25;3.22;;;;;;;10.70;100.00;101147.13;5032230;28;20056;-42
2023/08/06 04:54:21;;;;;;;9.10;2.67;;;;;;;10.73;100.00;101132.59;5032654;28;20049;-42
2023/08/06 04:56:48;;;;;;;5.22;2.95;;;;;;;10.74;100.00;101150.84;5032835;28;20046;-42
2023/08/06 04:59:15;;;;;;;6.88;2.65;;;;;;;10.71;100.00;101149.56;5032614;28;20050;-42
2023/08/06 05:01:42;;;;;;;10.50;2.50;;;;;;;10.68;100.00;101146.66;5031349;28;20045;-42
2023/08/06 05:04:09;;;;;;;5.50;2.75;;;;;;;10.70;100.00;101150.69;5032172;28;20053;-42
2023/08/06 05:06:38;;;;;;;5.93;2.45;;;;;;;10.70;100.00;101152.66;5032451;28;20049;-43
2023/08/06 05:09:05;;;;;;;5.68;2.78;;;;;;;10.66;100.00;101163.59;5032444;28;20034;-43
2023/08/06 05:11:33;;;;;;;8.52;2.88;;;;;;;10.65;100.00;101163.91;5030413;28;20049;-42
2023/08/06 05:13:59;;;;;;;7.72;2.55;;;;;;;10.63;100.00;101166.22;5023938;28;20557;-42
2023/08/06 05:16:26;;;;;;;4.15;2.63;;;;;;;10.60;100.00;101167.72;5032657;28;20081;-43
2023/08/06 05:18:53;;;;;;;7.72;3.95;;;;;;;10.60;100.00;101164.94;5032259;28;20132;-42
2023/08/06 05:21:20;;;;;;;6.00;2.65;;;;;;;10.59;100.00;101174.38;5031578;28;20058;-43
2023/08/06 05:23:46;;;;;;;6.97;3.20;;;;;;;10.62;100.00;101168.19;5032213;28;20080;-43
2023/08/06 05:26:15;;;;;;;8.75;2.85;;;;;;;10.64;100.00;101167.84;5031816;28;20571;-43
2023/08/06 05:28:42;;;;;;;9.88;4.53;;;;;;;10.68;100.00;101169.63;5032366;28;20442;-43
2023/08/06 05:31:09;;;;;;;9.57;3.33;;;;;;;10.68;100.00;101168.78;5031046;28;20113;-42
2023/08/06 05:33:35;;;;;;;6.60;3.75;;;;;;;10.68;100.00;101169.63;5031806;28;20553;-42
2023/08/06 05:36:03;;;;;;;5.55;3.13;;;;;;;10.71;100.00;101176.44;5032045;28;20043;-42
2023/08/06 05:38:29;;;;;;;9.82;3.70;;;;;;;10.75;100.00;101174.63;5031677;28;20045;-42
2023/08/06 05:40:56;;;;;;;10.10;4.85;;;;;;;10.78;100.00;101179.47;5030407;28;20033;-43
2023/08/06 05:43:23;;;;;;;8.50;4.40;;;;;;;10.83;100.00;101176.50;5031618;28;20469;-42
2023/08/06 05:45:50;;;;;;;10.13;4.88;;;;;;;10.90;100.00;101182.34;5031623;28;20046;-42
2023/08/06 05:48:17;;;;;;;11.38;5.70;;;;;;;10.96;100.00;101183.78;5031797;28;20065;-42
2023/08/06 05:50:44;;;;;;;7.07;4.43;;;;;;;10.98;100.00;101189.78;5030541;28;20041;-44
2023/08/06 05:53:10;;;;;;;9.82;4.80;;;;;;;10.95;100.00;101180.19;5031553;28;20068;-42
2023/08/06 05:55:38;;;;;;;10.15;5.07;;;;;;;10.99;100.00;101183.06;5031774;28;20041;-42
2023/08/06 05:58:05;;;;;;;6.90;3.80;;;;;;;11.04;100.00;101187.63;5031725;28;20044;-42
2023/08/06 06:00:32;;;;;;;11.50;4.05;;;;;;;11.03;100.00;101189.59;5030605;28;20451;-42
2023/08/06 06:02:59;;;;;;;7.32;3.83;;;;;;;11.05;100.00;101190.03;5017349;28;20053;-42
2023/08/06 06:05:26;;;;;;;8.88;2.55;;;;;;;11.09;100.00;101184.66;5031451;28;20046;-42
2023/08/06 06:07:52;;;;;;;5.97;3.05;;;;;;;11.12;100.00;101197.84;5031539;28;20041;-42
2023/08/06 06:10:19;;;;;;;5.80;3.22;;;;;;;11.17;100.00;101194.84;5031410;28;20049;-42
2023/08/06 06:12:46;;;;;;;6.45;2.70;;;;;;;11.20;100.00;101196.97;5028619;28;20103;-42
2023/08/06 06:15:12;;;;;;;6.45;3.08;;;;;;;11.23;100.00;101202.63;5031116;28;20051;-42
2023/08/06 06:17:39;;;;;;;7.70;2.90;;;;;;;11.24;100.00;101198.69;5031453;28;20059;-42
2023/08/06 06:20:07;;;;;;;6.32;2.83;;;;;;;11.25;100.00;101210.59;5031249;28;20069;-42
2023/08/06 06:22:33;;;;;;;6.22;2.97;;;;;;;11.26;100.00;101212.22;5030465;28;20504;-42
2023/08/06 06:25:00;;;;;;;11.75;3.50;;;;;;;11.30;100.00;101211.22;5030742;28;20049;-42
2023/08/06 06:27:27;;;;;;;6.15;2.88;;;;;;;11.34;100.00;101217.69;5031337;28;20081;-42
2023/08/06 06:29:54;;;;;;;7.90;3.45;;;;;;;11.42;100.00;101211.25;5030842;28;20080;-43
2023/08/06 06:32:21;;;;;;;7.57;2.53;;;;;;;11.49;100.00;101214.28;5029429;28;20055;-42
2023/08/06 06:34:48;;;;;;;12.30;4.07;;;;;;;11.58;100.00;101215.03;5031464;28;20045;-43
2023/08/06 06:37:15;;;;;;;4.40;2.50;;;;;;;11.73;100.00;101226.69;5031096;28;20140;-42
2023/08/06 06:39:42;;;;;;;5.47;2.75;;;;;;;11.86;100.00;101226.34;5031022;28;20538;-43
2023/08/06 06:42:09;;;;;;;7.35;2.28;;;;;;;12.01;100.00;101227.69;5030388;28;20067;-43
2023/08/06 06:44:35;;;;;;;6.25;2.65;;;;;;;12.12;100.00;101223.31;5030612;28;20053;-43
2023/08/06 06:47:02;;;;;;;7.82;2.38;;;;;;;12.25;100.00;101229.72;5030354;28;20042;-43
2023/08/06 06:49:29;;;;;;;5.72;2.45;;;;;;;12.35;100.00;101221.75;5030894;28;20781;-43
2023/08/06 06:51:56;;;;;;;5.32;2.47;;;;;;;12.47;100.00;101232.84;5029973;28;20071;-44
2023/08/06 06:54:23;;;;;;;5.05;2.63;;;;;;;12.52;100.00;101221.50;5030841;28;20084;-43
2023/08/06 06:56:50;;;;;;;10.82;2.58;;;;;;;12.59;100.00;101221.75;5030903;28;20049;-44
2023/08/06 06:59:16;;;;;;;9.20;2.85;;;;;;;12.69;100.00;101221.28;5029822;28;20530;-43
2023/08/06 07:01:43;;;;;;;8.98;2.88;;;;;;;12.78;100.00;101233.09;5030037;28;20037;-43
2023/08/06 07:04:10;;;;;;;6.28;2.00;;;;;;;12.84;100.00;101228.91;5030410;28;20049;-45
2023/08/06 07:06:36;;;;;;;5.50;2.90;;;;;;;12.88;100.00;101229.03;5030861;28;20059;-43
2023/08/06 07:09:03;;;;;;;2.85;1.75;;;;;;;12.91;100.00;101233.09;5031063;28;20045;-43
2023/08/06 07:11:30;;;;;;;6.05;2.20;;;;;;;12.88;100.00;101223.47;5029342;28;20060;-45
2023/08/06 07:13:58;;;;;;;5.88;2.40;;;;;;;12.90;100.00;101223.09;5029334;28;20096;-44
2023/08/06 07:16:26;;;;;;;6.47;2.15;;;;;;;12.88;100.00;101228.22;5030574;28;20533;-44
2023/08/06 07:18:53;;;;;;;5.10;2.20;;;;;;;12.85;100.00;101215.81;5030975;28;20069;-43
2023/08/06 07:21:21;;;;;;;4.40;1.90;;;;;;;12.87;100.00;101229.41;5028782;28;20107;-44
2023/08/06 07:23:51;;;;;;;9.00;2.25;;;;;;;12.87;100.00;101229.41;5031848;28;20053;-44
2023/08/06 07:26:18;;;;;;;10.90;4.15;;;;;;;12.91;100.00;101224.75;5034225;28;20730;-43
2023/08/06 07:28:45;;;;;;;8.60;2.97;;;;;;;12.91;100.00;101219.19;5034484;28;20053;-43
2023/08/06 07:31:12;;;;;;;5.07;1.88;;;;;;;12.93;100.00;101222.41;5033245;28;20377;-43
2023/08/06 07:33:39;;;;;;;6.32;2.42;;;;;;;12.99;100.00;101221.03;5034177;28;20049;-45
2023/08/06 07:36:11;;;;;;;3.55;2.05;;;;;;;13.06;100.00;101213.72;5034399;28;20038;-44
2023/08/06 07:38:38;;;;;;;8.45;2.95;;;;;;;13.12;100.00;101217.09;5034448;28;20411;-43
2023/08/06 07:41:05;;;;;;;3.58;2.20;;;;;;;13.18;100.00;101221.25;5034109;28;20100;-43
2023/08/06 07:43:32;;;;;;;6.22;2.53;;;;;;;13.26;100.00;101223.88;5033174;28;20053;-43
2023/08/06 07:46:00;;;;;;;8.80;2.28;;;;;;;13.36;100.00;101217.03;5033814;28;20038;-43
2023/08/06 07:48:27;;;;;;;4.03;1.88;;;;;;;13.42;100.00;101215.63;5034455;28;20046;-43
2023/08/06 07:50:55;;;;;;;4.65;1.85;;;;;;;13.55;100.00;101228.34;5033988;28;20049;-43
2023/08/06 07:53:23;;;;;;;7.97;2.08;;;;;;;13.65;100.00;101229.78;5031894;28;20049;-43
2023/08/06 07:55:52;;;;;;;5.72;1.63;;;;;;;13.79;100.00;101219.84;5033744;28;20045;-43
2023/08/06 07:58:21;;;;;;;4.85;2.13;;;;;;;13.98;100.00;101225.56;5034139;28;20132;-43
2023/08/06 08:00:48;;;;;;;6.22;1.73;;;;;;;14.20;100.00;101226.13;5033546;28;20052;-43
2023/08/06 08:03:16;;;;;;;3.03;1.73;;;;;;;14.43;100.00;101221.59;5025945;28;20050;-44
2023/08/06 08:05:44;;;;;;;4.32;1.98;;;;;;;14.69;100.00;101221.88;5030747;28;20399;-44
2023/08/06 08:08:11;;;;;;;6.07;2.75;;;;;;;15.01;100.00;101220.63;5029175;28;20046;-44
2023/08/06 08:10:38;;;;;;;5.18;1.90;;;;;;;15.32;100.00;101216.94;5031139;28;20042;-48
2023/08/06 08:13:07;;;;;;;3.03;2.15;;;;;;;15.49;100.00;101224.91;5026927;28;20049;-43
2023/08/06 08:15:34;;;;;;;7.57;2.28;;;;;;;15.60;100.00;101225.94;5031740;28;20046;-44
2023/08/06 08:18:01;;;;;;;5.07;2.33;;;;;;;15.72;100.00;101231.38;5026362;28;20049;-43
2023/08/06 08:20:35;;;;;;;7.18;2.00;;;;;;;15.84;100.00;101227.59;5033297;28;20128;-43
2023/08/06 08:23:04;;;;;;;5.97;3.00;;;;;;;15.98;100.00;101236.28;5030211;28;20091;-43
2023/08/06 08:25:31;;;;;;;2.95;1.63;;;;;;;16.07;100.00;101231.25;5033172;28;20132;-44
2023/08/06 08:27:58;;;;;;;4.60;1.70;;;;;;;16.15;100.00;101227.41;5030963;28;20041;-45
2023/08/06 08:30:25;;;;;;;3.50;1.55;;;;;;;16.43;100.00;101227.94;5031323;28;20057;-44
2023/08/06 08:32:52;;;;;;;5.57;1.70;;;;;;;17.29;100.00;101228.06;5023182;28;20487;-41
2023/08/06 08:35:19;;;;;;;5.28;1.70;;;;;;;18.29;100.00;101236.50;5029011;28;20423;-41
2023/08/06 08:37:46;;;;;;;6.45;2.55;;;;;;;19.19;97.58;101231.25;5032400;28;20049;-43
2023/08/06 08:40:14;;;;;;;3.80;1.48;;;;;;;19.82;94.71;101233.56;5031712;28;20091;-42
2023/08/06 08:42:42;;;;;;;9.68;2.25;;;;;;;20.13;92.48;101232.84;5027039;28;20045;-42
2023/08/06 08:45:13;;;;;;;4.55;1.80;;;;;;;20.49;89.38;101236.56;5029331;28;20044;-43
2023/08/06 08:47:44;;;;;;;5.00;2.17;;;;;;;20.17;87.58;101238.50;5031487;28;20041;-42
2023/08/06 08:50:11;;;;;;;3.75;1.73;;;;;;;19.85;85.98;101233.59;5028650;28;20045;-42
2023/08/06 08:52:40;;;;;;;3.25;2.13;;;;;;;19.87;83.74;101234.00;5029939;28;20561;-42
2023/08/06 08:55:07;;;;;;;3.65;1.70;;;;;;;19.68;82.82;101234.31;5032686;28;20129;-42
2023/08/06 08:57:34;;;;;;;5.20;1.58;;;;;;;19.64;81.52;101235.50;5027950;28;20442;-44
2023/08/06 09:00:01;;;;;;;3.83;1.33;;;;;;;19.55;80.15;101235.88;5030785;28;20073;-43
2023/08/06 09:02:31;;;;;;;4.50;1.45;;;;;;;19.16;79.35;101230.03;5027156;28;20415;-42
2023/08/06 09:05:02;;;;;;;6.00;2.38;;;;;;;18.70;79.85;101235.31;5027196;28;20071;-43
2023/08/06 09:07:37;;;;;;;4.75;1.65;;;;;;;18.79;80.40;101244.19;5030502;28;20148;-42
2023/08/06 09:10:06;;;;;;;5.80;1.42;;;;;;;19.86;78.84;101232.38;5027859;28;20115;-42
2023/08/06 09:12:33;;;;;;;8.60;3.17;;;;;;;20.95;75.84;101228.91;5027919;28;20045;-43
2023/08/06 09:15:03;;;;;;;4.20;1.20;;;;;;;21.60;73.83;101238.84;5024398;28;20451;-42
2023/08/06 09:17:30;;;;;;;3.08;1.77;;;;;;;22.30;72.35;101235.66;5027656;28;20041;-45
2023/08/06 09:19:57;;;;;;;6.90;1.83;;;;;;;22.07;70.49;101249.53;5023237;28;20052;-43
2023/08/06 09:22:24;;;;;;;2.15;1.08;;;;;;;21.38;70.48;101234.47;5028318;28;20052;-43
2023/08/06 09:24:50;;;;;;;4.82;1.30;;;;;;;20.76;71.31;101242.59;5031317;28;20149;-42
2023/08/06 09:27:18;;;;;;;2.97;1.33;;;;;;;20.70;71.13;101239.38;5030935;28;20048;-44
2023/08/06 09:29:45;;;;;;;2.53;1.48;;;;;;;20.34;70.29;101226.50;5027858;28;20115;-43
2023/08/06 09:32:13;;;;;;;5.43;1.60;;;;;;;19.87;70.58;101236.81;5025517;28;20137;-43
2023/08/06 09:34:42;;;;;;;6.15;1.48;;;;;;;19.44;70.98;101241.44;5030081;28;20055;-43
2023/08/06 09:37:13;;;;;;;3.08;0.85;;;;;;;19.44;71.76;101243.44;5031771;28;20099;-42
2023/08/06 09:39:43;;;;;;;7.53;1.73;;;;;;;20.18;70.78;101240.09;5030485;28;20045;-42
2023/08/06 09:42:09;;;;;;;5.40;1.00;;;;;;;21.33;68.25;101238.53;5029727;28;20038;-43
2023/08/06 09:44:40;;;;;;;2.58;0.90;;;;;;;21.96;66.54;101259.25;5025873;28;20068;-42
2023/08/06 09:47:07;;;;;;;3.97;1.10;;;;;;;22.44;65.47;101248.88;5031560;28;20435;-43
2023/08/06 09:49:34;;;;;;;3.15;1.08;;;;;;;22.92;64.90;101254.56;5029206;28;20149;-43
2023/08/06 09:52:02;;;;;;;1.67;0.70;;;;;;;23.48;63.20;101245.53;5024997;28;20551;-44
2023/08/06 09:54:30;;;;;;;6.38;1.48;;;;;;;24.01;62.05;101250.50;5025975;28;20037;-44
2023/08/06 09:56:57;;;;;;;3.28;1.15;;;;;;;24.51;60.87;101250.63;5031383;28;20099;-42
2023/08/06 09:59:24;;;;;;;2.10;1.10;;;;;;;24.67;59.22;101249.97;5029485;28;20064;-42
2023/08/06 10:01:51;;;;;;;5.25;1.13;;;;;;;24.03;59.22;101245.25;5026383;28;20045;-42
2023/08/06 10:04:20;;;;;;;2.15;1.23;;;;;;;22.96;60.91;101244.03;5030519;28;20041;-42
2023/08/06 10:06:52;;;;;;;1.80;0.93;;;;;;;22.32;61.74;101243.69;5030337;28;20053;-43
2023/08/06 10:09:20;;;;;;;2.95;1.00;;;;;;;22.63;61.51;101242.72;5028586;28;20077;-43
2023/08/06 10:11:53;;;;;;;4.85;2.08;;;;;;;23.36;59.56;101251.69;5029935;28;20056;-42
2023/08/06 10:14:30;;;;;;;3.25;1.40;;;;;;;23.93;58.81;101251.84;5029829;28;20038;-43
2023/08/06 10:16:59;;;;;;;2.28;1.35;;;;;;;24.50;57.24;101256.72;5031221;28;20080;-42
2023/08/06 10:19:27;;;;;;;1.83;0.90;;;;;;;23.82;56.82;101261.69;5030304;28;20041;-42
2023/08/06 10:22:13;;;;;;;6.07;1.17;;;;;;;22.62;59.34;101257.19;5031168;28;20049;-43
2023/08/06 10:24:49;;;;;;;3.85;0.90;;;;;;;21.66;60.75;101240.00;5031069;28;20042;-43
2023/08/06 10:27:34;;;;;;;4.75;1.17;;;;;;;21.94;60.78;101248.38;5030951;28;20041;-42
2023/08/06 10:30:26;;;;;;;4.68;1.15;;;;;;;22.87;58.66;101247.34;5029343;28;20082;-42
2023/08/06 10:32:57;;;;;;;5.55;2.28;;;;;;;23.53;57.69;101250.75;5031392;28;20053;-42
2023/08/06 10:35:48;;;;;;;5.00;0.90;;;;;;;24.10;56.70;101238.72;5031028;28;20066;-42
2023/08/06 10:38:25;;;;;;;1.50;1.20;;;;;;;24.37;55.61;101245.19;5030064;28;20131;-42
2023/08/06 10:40:52;;;;;;;0.73;0.65;;;;;;;24.43;54.92;101237.00;5031292;28;20053;-42
2023/08/06 10:43:39;;;;;;;2.72;0.55;;;;;;;24.35;54.75;101244.81;5030694;28;20045;-42
2023/08/06 10:46:10;;;;;;;1.13;0.90;;;;;;;24.19;54.76;101236.97;5031036;28;20075;-44
2023/08/06 10:48:41;;;;;;;3.97;0.52;;;;;;;23.89;55.63;101238.97;5030030;28;20100;-42
2023/08/06 10:51:10;;;;;;;1.35;0.65;;;;;;;23.41;56.00;101237.13;5030851;28;20119;-44
2023/08/06 10:53:48;;;;;;;2.47;0.63;;;;;;;22.78;57.78;101240.56;5031178;28;20057;-42
2023/08/06 10:56:19;;;;;;;2.92;1.67;;;;;;;22.26;59.04;101239.72;5030971;28;20056;-42
2023/08/06 10:58:46;;;;;;;2.35;0.73;;;;;;;21.74;59.78;101239.56;5031936;28;20103;-42
2023/08/06 11:01:14;;;;;;;4.40;1.00;;;;;;;21.26;60.22;101243.38;5034321;28;20381;-42
2023/08/06 11:03:43;;;;;;;2.28;0.73;;;;;;;20.91;61.39;101235.75;5034921;28;20050;-42
2023/08/06 11:06:10;;;;;;;2.38;1.00;;;;;;;20.88;61.92;101234.56;5033416;28;20060;-42
2023/08/06 11:08:40;;;;;;;2.03;0.70;;;;;;;21.04;61.64;101237.75;5033872;28;20515;-43
2023/08/06 11:11:12;;;;;;;1.50;0.90;;;;;;;21.22;61.07;101241.38;5034606;28;20037;-42
2023/08/06 11:13:46;;;;;;;3.20;1.50;;;;;;;21.18;61.33;101254.63;5034707;28;20050;-42
2023/08/06 11:16:18;;;;;;;2.33;1.00;;;;;;;20.96;61.20;101255.06;5034819;28;20049;-42
2023/08/06 11:18:47;;;;;;;1.90;0.40;;;;;;;20.52;61.75;101261.06;5032696;28;20056;-42
2023/08/06 11:21:14;;;;;;;1.92;0.45;;;;;;;19.92;62.84;101260.91;5034877;28;20120;-42
2023/08/06 11:23:41;;;;;;;0.80;0.52;;;;;;;19.40;64.19;101251.84;5034514;28;20037;-42
2023/08/06 11:26:08;;;;;;;0.88;0.47;;;;;;;18.95;66.21;101251.53;5034292;28;20547;-41